createdAt,value
2019-04-11T00:01:53.463Z,7.70
2019-04-11T00:04:20.398Z,7.50
2019-04-11T00:06:47.891Z,7.60
2019-04-11T00:09:16.720Z,7.60
2019-04-11T00:11:44.216Z,7.70
2019-04-11T00:14:13.844Z,7.50
2019-04-11T00:16:41.549Z,7.60
2019-04-11T00:19:09.394Z,7.50
2019-04-11T00:21:37.825Z,7.60
2019-04-11T00:24:05.001Z,7.50
2019-04-11T00:26:32.594Z,7.50
2019-04-11T00:28:59.536Z,7.40
2019-04-11T00:31:26.186Z,7.40
2019-04-11T00:33:54.186Z,7.40
2019-04-11T00:36:22.148Z,7.40
2019-04-11T00:38:50.048Z,7.20
2019-04-11T00:41:17.580Z,7.20
2019-04-11T00:43:45.740Z,7.30
2019-04-11T00:46:13.092Z,7.30
2019-04-11T00:48:39.881Z,7.30
2019-04-11T00:51:07.616Z,7.50
2019-04-11T00:53:34.633Z,7.60
2019-04-11T00:56:02.028Z,7.40
2019-04-11T00:58:29.755Z,7.20
2019-04-11T01:00:57.536Z,7.10
2019-04-11T01:03:24.373Z,7.10
2019-04-11T01:05:51.968Z,7.10
2019-04-11T01:08:19.816Z,7.00
2019-04-11T01:10:47.795Z,7.00
2019-04-11T01:13:15.749Z,7.00
2019-04-11T01:15:44.904Z,6.90
2019-04-11T01:18:11.915Z,6.90
2019-04-11T01:20:39.716Z,7.00
2019-04-11T01:23:06.871Z,7.00
2019-04-11T01:25:34.772Z,7.00
2019-04-11T01:28:02.559Z,7.00
2019-04-11T01:30:49.193Z,6.90
2019-04-11T01:33:15.951Z,6.90
2019-04-11T01:35:43.650Z,6.90
2019-04-11T01:38:10.367Z,6.90
2019-04-11T01:40:37.874Z,6.90
2019-04-11T01:43:05.933Z,6.70
2019-04-11T01:45:33.699Z,6.90
2019-04-11T01:48:19.578Z,6.70
2019-04-11T01:50:47.280Z,6.70
2019-04-11T01:53:15.069Z,6.80
2019-04-11T01:55:42.871Z,6.80
2019-04-11T01:58:11.844Z,6.90
2019-04-11T02:00:46.441Z,6.90
2019-04-11T02:03:15.070Z,6.90
2019-04-11T02:05:41.893Z,6.90
2019-04-11T02:08:09.241Z,6.80
2019-04-11T02:10:37.015Z,6.70
2019-04-11T02:13:03.975Z,6.60
2019-04-11T02:15:30.859Z,6.60
2019-04-11T02:17:57.573Z,6.40
2019-04-11T02:20:24.958Z,6.40
2019-04-11T02:23:06.664Z,6.50
2019-04-11T02:25:36.569Z,6.60
2019-04-11T02:28:04.999Z,6.70
2019-04-11T02:30:36.196Z,6.60
2019-04-11T02:33:04.685Z,6.60
2019-04-11T02:35:31.699Z,6.80
2019-04-11T02:37:59.729Z,6.70
2019-04-11T02:40:27.663Z,6.80
2019-04-11T02:42:57.159Z,6.90
2019-04-11T02:45:36.960Z,6.60
2019-04-11T02:47:55.341Z,6.70
2019-04-11T02:50:23.404Z,6.60
2019-04-11T02:52:51.945Z,6.60
2019-04-11T02:55:19.176Z,6.50
2019-04-11T02:57:46.132Z,6.40
2019-04-11T03:00:13.693Z,6.60
2019-04-11T03:02:42.317Z,6.60
2019-04-11T03:05:10.110Z,6.60
2019-04-11T03:07:38.132Z,6.40
2019-04-11T03:10:07.046Z,6.10
2019-04-11T03:12:35.902Z,6.20
2019-04-11T03:15:22.992Z,6.10
2019-04-11T03:17:38.518Z,6.10
2019-04-11T03:20:13.034Z,6.20
2019-04-11T03:22:32.215Z,6.30
2019-04-11T03:25:00.303Z,6.30
2019-04-11T03:27:29.957Z,6.40
2019-04-11T03:30:02.969Z,6.40
2019-04-11T03:33:17.729Z,6.40
2019-04-11T03:35:51.848Z,6.50
2019-04-11T03:37:56.633Z,6.40
2019-04-11T03:40:19.213Z,6.30
2019-04-11T03:42:38.066Z,6.20
2019-04-11T03:45:15.112Z,6.30
2019-04-11T03:47:38.910Z,6.10
2019-04-11T03:50:03.004Z,6.10
2019-04-11T03:52:23.757Z,6.10
2019-04-11T03:54:51.318Z,6.00
2019-04-11T03:57:21.647Z,6.00
2019-04-11T03:59:48.952Z,6.20
2019-04-11T04:02:16.935Z,6.00
2019-04-11T04:04:49.382Z,6.00
2019-04-11T04:07:16.900Z,6.00
2019-04-11T04:09:45.953Z,6.00
2019-04-11T04:12:13.660Z,6.00
2019-04-11T04:14:51.396Z,6.00
2019-04-11T04:17:39.284Z,6.00
2019-04-11T04:20:26.771Z,6.00
2019-04-11T04:22:58.738Z,6.00
2019-04-11T04:25:26.169Z,6.00
2019-04-11T04:27:54.555Z,6.00
2019-04-11T04:30:22.117Z,6.00
2019-04-11T04:32:49.361Z,6.00
2019-04-11T04:35:20.484Z,5.90
2019-04-11T04:37:47.472Z,5.80
2019-04-11T04:40:31.415Z,5.60
2019-04-11T04:42:50.186Z,5.70
2019-04-11T04:45:14.668Z,5.70
2019-04-11T04:47:47.826Z,5.60
2019-04-11T04:50:11.512Z,5.70
2019-04-11T04:52:40.755Z,5.90
2019-04-11T04:55:08.566Z,5.80
2019-04-11T04:57:35.829Z,5.80
2019-04-11T05:00:07.166Z,5.80
2019-04-11T05:02:35.429Z,5.80
2019-04-11T05:05:06.194Z,5.80
2019-04-11T05:07:39.555Z,5.70
2019-04-11T05:10:07.157Z,5.60
2019-04-11T05:12:34.584Z,5.50
2019-04-11T05:15:01.646Z,5.40
2019-04-11T05:17:28.909Z,5.30
2019-04-11T05:19:56.489Z,5.50
2019-04-11T05:22:23.147Z,5.50
2019-04-11T05:24:49.771Z,5.60
2019-04-11T05:27:17.441Z,5.70
2019-04-11T05:29:44.146Z,5.70
2019-04-11T05:32:11.324Z,5.70
2019-04-11T05:34:39.266Z,5.80
2019-04-11T05:37:07.296Z,5.90
2019-04-11T05:39:33.987Z,5.60
2019-04-11T05:42:00.860Z,5.60
2019-04-11T05:44:28.489Z,5.40
2019-04-11T05:52:00.284Z,5.60
2019-04-11T05:54:29.022Z,5.60
2019-04-11T05:56:59.147Z,5.60
2019-04-11T05:59:27.263Z,5.60
2019-04-11T06:01:55.934Z,5.40
2019-04-11T06:04:27.258Z,5.60
2019-04-11T06:38:41.422Z,6.70
2019-04-11T06:41:10.332Z,7.20
2019-04-11T06:43:47.995Z,7.50
2019-04-11T06:46:31.574Z,7.70
2019-04-11T06:49:00.285Z,7.60
2019-04-11T06:51:32.429Z,7.80
2019-04-11T06:54:17.534Z,7.90
2019-04-11T06:56:47.481Z,7.90
2019-04-11T06:59:16.429Z,8.30
2019-04-11T07:01:45.430Z,8.40
2019-04-11T07:04:20.252Z,8.60
2019-04-11T07:06:48.839Z,8.80
2019-04-11T07:09:17.368Z,9.10
2019-04-11T07:11:48.807Z,9.50
2019-04-11T07:14:18.261Z,9.50
2019-04-11T07:17:07.168Z,9.50
2019-04-11T07:19:35.165Z,9.90
2019-04-11T07:22:04.639Z,10.20
2019-04-11T07:24:49.539Z,10.50
2019-04-11T07:27:18.171Z,10.60
2019-04-11T07:30:05.570Z,11.00
2019-04-11T07:32:32.438Z,11.60
2019-04-11T07:35:19.239Z,11.90
2019-04-11T07:37:47.448Z,11.60
2019-04-11T07:40:19.231Z,12.20
2019-04-11T07:42:59.420Z,12.20
2019-04-11T07:45:40.222Z,12.20
2019-04-11T07:48:17.191Z,12.20
2019-04-11T07:50:44.392Z,12.60
2019-04-11T07:53:13.201Z,13.00
2019-04-11T07:55:40.633Z,12.90
2019-04-11T07:58:21.843Z,13.60
2019-04-11T08:00:54.477Z,14.00
2019-04-11T08:03:40.011Z,14.00
2019-04-11T08:06:16.636Z,13.90
2019-04-11T08:08:45.369Z,14.10
2019-04-11T08:11:13.929Z,13.90
2019-04-11T08:13:48.372Z,14.00
2019-04-11T08:16:30.784Z,14.30
2019-04-11T08:19:05.686Z,14.40
2019-04-11T08:21:51.065Z,13.80
2019-04-11T08:24:36.590Z,14.00
2019-04-11T08:27:11.448Z,14.30
2019-04-11T08:29:38.325Z,14.80
2019-04-11T08:32:06.965Z,15.00
2019-04-11T08:34:35.502Z,15.10
2019-04-11T08:37:13.632Z,15.40
2019-04-11T08:39:41.487Z,15.60
2019-04-11T08:42:10.233Z,15.60
2019-04-11T08:44:36.995Z,15.60
2019-04-11T08:47:04.480Z,16.00
2019-04-11T08:49:35.829Z,16.10
2019-04-11T08:52:05.511Z,16.30
2019-04-11T08:54:37.644Z,16.30
2019-04-11T08:57:04.625Z,16.10
2019-04-11T08:59:39.780Z,16.30
2019-04-11T09:02:06.937Z,16.80
2019-04-11T09:04:36.448Z,17.50
2019-04-11T09:07:05.182Z,17.90
2019-04-11T09:09:37.994Z,17.90
2019-04-11T09:12:06.667Z,17.10
2019-04-11T09:14:50.665Z,17.30
2019-04-11T09:17:21.035Z,17.40
2019-04-11T09:19:49.993Z,17.10
2019-04-11T09:22:18.678Z,17.40
2019-04-11T09:24:51.087Z,17.70
2019-04-11T09:27:36.497Z,17.60
2019-04-11T09:30:15.649Z,16.60
2019-04-11T09:33:01.029Z,15.80
2019-04-11T09:35:44.694Z,15.40
2019-04-11T09:38:16.017Z,14.30
2019-04-11T09:40:47.940Z,13.60
2019-04-11T09:43:26.276Z,13.20
2019-04-11T09:46:14.328Z,12.80
2019-04-11T09:48:44.159Z,12.60
2019-04-11T09:51:31.959Z,13.10
2019-04-11T09:54:17.573Z,13.20
2019-04-11T09:57:04.340Z,13.70
2019-04-11T09:59:49.796Z,14.10
2019-04-11T10:02:18.830Z,14.50
2019-04-11T10:04:48.067Z,15.30
2019-04-11T10:07:17.578Z,15.80
2019-04-11T10:09:55.417Z,15.60
2019-04-11T10:12:38.219Z,16.70
2019-04-11T10:15:09.332Z,17.00
2019-04-11T10:17:56.861Z,17.10
2019-04-11T10:20:24.484Z,17.20
2019-04-11T10:23:03.319Z,17.30
2019-04-11T10:25:32.314Z,18.70
2019-04-11T10:28:04.794Z,18.30
2019-04-11T10:30:50.416Z,17.90
2019-04-11T10:33:37.217Z,18.10
2019-04-11T10:36:23.144Z,18.30
2019-04-11T10:38:58.871Z,18.60
2019-04-11T10:41:44.227Z,18.50
2019-04-11T10:44:13.919Z,17.90
2019-04-11T10:46:45.239Z,18.20
2019-04-11T10:49:20.158Z,18.50
2019-04-11T10:51:51.526Z,18.50
2019-04-11T10:54:18.253Z,18.70
2019-04-11T10:56:53.632Z,19.00
2019-04-11T10:59:25.081Z,18.80
2019-04-11T11:02:10.653Z,19.30
2019-04-11T11:04:39.480Z,19.40
2019-04-11T11:07:08.553Z,20.00
2019-04-11T11:09:55.153Z,19.50
2019-04-11T11:12:27.371Z,20.30
2019-04-11T11:14:56.072Z,20.60
2019-04-11T11:17:54.641Z,20.90
2019-04-11T11:20:28.832Z,20.40
2019-04-11T11:22:58.056Z,20.40
2019-04-11T11:25:48.318Z,20.50
2019-04-11T11:28:13.687Z,20.50
2019-04-11T11:30:44.981Z,20.30
2019-04-11T11:33:12.469Z,20.50
2019-04-11T11:35:42.838Z,20.50
2019-04-11T11:38:11.473Z,19.90
2019-04-11T11:40:46.035Z,19.70
2019-04-11T11:43:21.159Z,19.70
2019-04-11T11:45:56.842Z,20.70
2019-04-11T11:48:35.590Z,20.70
2019-04-11T11:51:05.404Z,21.20
2019-04-11T11:53:35.074Z,20.40
2019-04-11T11:56:05.392Z,20.90
2019-04-11T11:58:42.251Z,21.30
2019-04-11T12:01:09.416Z,21.10
2019-04-11T12:03:57.559Z,21.00
2019-04-11T12:06:25.202Z,21.40
2019-04-11T12:08:54.165Z,21.50
2019-04-11T12:11:22.577Z,21.10
2019-04-11T12:13:57.881Z,20.40
2019-04-11T12:16:27.970Z,20.70
2019-04-11T12:18:56.665Z,20.50
2019-04-11T12:21:28.047Z,20.30
2019-04-11T12:24:04.280Z,20.70
2019-04-11T12:26:31.256Z,21.00
2019-04-11T12:28:59.669Z,20.70
2019-04-11T12:31:43.989Z,19.90
2019-04-11T12:34:12.618Z,20.20
2019-04-11T12:36:46.671Z,20.50
2019-04-11T12:39:14.739Z,20.40
2019-04-11T12:41:59.104Z,20.70
2019-04-11T12:44:30.650Z,20.10
2019-04-11T12:47:01.990Z,20.10
2019-04-11T12:49:37.018Z,19.80
2019-04-11T12:52:22.062Z,18.90
2019-04-11T12:54:53.614Z,19.80
2019-04-11T12:57:38.878Z,20.50
2019-04-11T13:00:11.641Z,20.40
2019-04-11T13:03:00.298Z,20.40
2019-04-11T13:05:32.619Z,20.00
2019-04-11T13:08:07.492Z,19.60
2019-04-11T13:10:34.967Z,19.00
2019-04-11T13:13:03.501Z,18.80
2019-04-11T13:15:32.131Z,18.40
2019-04-11T13:18:12.646Z,17.60
2019-04-11T13:20:53.188Z,17.30
2019-04-11T13:23:21.755Z,16.70
2019-04-11T13:26:06.976Z,16.70
2019-04-11T13:28:33.746Z,16.70
2019-04-11T13:31:19.401Z,16.60
2019-04-11T13:33:46.044Z,16.70
2019-04-11T13:36:32.867Z,16.50
2019-04-11T13:39:02.529Z,16.70
2019-04-11T13:41:31.894Z,16.40
2019-04-11T13:43:58.967Z,16.20
2019-04-11T13:46:31.866Z,16.20
2019-04-11T13:49:03.437Z,16.40
2019-04-11T13:51:32.206Z,16.30
2019-04-11T13:54:10.241Z,15.90
2019-04-11T13:56:55.506Z,15.90
2019-04-11T13:59:36.034Z,16.10
2019-04-11T14:02:15.968Z,15.70
2019-04-11T14:04:54.378Z,15.80
2019-04-11T14:07:23.651Z,16.00
2019-04-11T14:10:02.412Z,16.30
2019-04-11T14:12:33.459Z,16.00
2019-04-11T14:15:11.468Z,16.30
2019-04-11T14:17:52.068Z,16.20
2019-04-11T14:20:29.070Z,15.70
2019-04-11T14:22:51.352Z,15.60
2019-04-11T14:25:22.895Z,15.50
2019-04-11T14:27:53.094Z,15.70
2019-04-11T14:30:24.592Z,15.80
2019-04-11T14:32:53.913Z,15.50
2019-04-11T14:35:32.053Z,15.40
2019-04-11T14:38:00.639Z,15.80
2019-04-11T14:40:29.253Z,16.00
2019-04-11T14:43:00.692Z,15.80
2019-04-11T14:45:44.615Z,15.70
2019-04-11T14:48:20.592Z,15.30
2019-04-11T14:50:50.246Z,15.00
2019-04-11T14:53:33.769Z,15.10
2019-04-11T14:56:17.385Z,15.30
2019-04-11T14:58:48.802Z,15.30
2019-04-11T15:01:20.269Z,15.00
2019-04-11T15:03:49.062Z,15.00
2019-04-11T15:06:20.328Z,14.90
2019-04-11T15:09:05.758Z,14.90
2019-04-11T15:11:50.126Z,15.00
2019-04-11T15:14:28.262Z,14.90
2019-04-11T15:17:14.758Z,14.90
2019-04-11T15:20:02.671Z,14.90
2019-04-11T15:22:35.490Z,15.00
2019-04-11T15:25:20.376Z,15.00
2019-04-11T15:27:54.779Z,15.00
2019-04-11T15:30:40.401Z,14.90
2019-04-11T15:33:25.459Z,14.80
2019-04-11T15:35:57.652Z,14.70
2019-04-11T15:38:40.840Z,14.60
2019-04-11T15:41:11.826Z,14.60
2019-04-11T15:43:49.493Z,14.70
2019-04-11T15:46:18.290Z,14.60
2019-04-11T15:49:05.171Z,14.60
2019-04-11T15:51:36.188Z,14.60
2019-04-11T15:54:06.890Z,14.70
2019-04-11T15:56:51.157Z,14.60
2019-04-11T15:59:29.944Z,14.60
2019-04-11T16:02:15.754Z,14.60
2019-04-11T16:04:47.013Z,14.60
2019-04-11T16:07:15.665Z,14.50
2019-04-11T16:09:56.253Z,14.20
2019-04-11T16:12:41.637Z,14.40
2019-04-11T16:15:18.503Z,14.40
2019-04-11T16:18:03.591Z,14.30
2019-04-11T16:20:30.786Z,14.10
2019-04-11T16:22:59.883Z,14.00
2019-04-11T16:25:28.946Z,14.10
2019-04-11T16:28:09.050Z,14.30
2019-04-11T16:30:40.831Z,14.40
2019-04-11T16:33:27.788Z,14.40
2019-04-11T16:35:59.471Z,14.40
2019-04-11T16:38:28.146Z,14.20
2019-04-11T16:41:14.714Z,14.00
2019-04-11T16:43:43.233Z,14.10
2019-04-11T16:46:18.014Z,14.10
2019-04-11T16:48:44.908Z,14.00
2019-04-11T16:51:11.762Z,14.10
2019-04-11T16:53:38.679Z,13.90
2019-04-11T16:56:06.342Z,13.80
2019-04-11T16:58:35.193Z,13.70
2019-04-11T17:01:01.955Z,13.60
2019-04-11T17:03:29.120Z,13.80
2019-04-11T17:05:57.714Z,13.70
2019-04-11T17:08:26.502Z,13.60
2019-04-11T17:11:08.656Z,13.60
2019-04-11T17:13:35.613Z,13.70
2019-04-11T17:16:03.495Z,13.80
2019-04-11T17:18:34.107Z,13.70
2019-04-11T17:20:59.177Z,13.70
2019-04-11T17:23:26.137Z,13.60
2019-04-11T17:25:53.591Z,13.50
2019-04-11T17:28:22.882Z,13.40
2019-04-11T17:30:48.946Z,13.40
2019-04-11T17:33:15.531Z,13.70
2019-04-11T17:35:43.424Z,13.70
2019-04-11T17:38:10.341Z,13.70
2019-04-11T17:40:39.369Z,13.50
2019-04-11T17:43:05.579Z,13.60
2019-04-11T17:45:32.422Z,13.60
2019-04-11T17:47:59.308Z,13.40
2019-04-11T17:50:25.984Z,13.40
2019-04-11T17:52:54.578Z,13.50
2019-04-11T17:55:23.617Z,13.50
2019-04-11T17:57:49.971Z,13.40
2019-04-11T18:00:21.909Z,13.30
2019-04-11T18:02:48.817Z,13.30
2019-04-11T18:05:17.203Z,13.10
2019-04-11T18:07:46.910Z,13.00
2019-04-11T18:10:16.305Z,12.90
2019-04-11T18:12:43.529Z,12.90
2019-04-11T18:15:10.290Z,12.90
2019-04-11T18:17:37.049Z,13.00
2019-04-11T18:20:07.612Z,13.00
2019-04-11T18:22:35.545Z,13.00
2019-04-11T18:25:04.114Z,12.80
2019-04-11T18:27:30.853Z,12.80
2019-04-11T18:29:57.774Z,12.80
2019-04-11T18:32:24.537Z,12.80
2019-04-11T18:34:51.459Z,12.70
2019-04-11T18:37:18.265Z,12.60
2019-04-11T18:39:45.303Z,12.70
2019-04-11T18:42:12.485Z,12.50
2019-04-11T18:44:39.842Z,12.40
2019-04-11T18:47:06.701Z,12.20
2019-04-11T18:49:33.811Z,12.10
2019-04-11T18:52:00.599Z,12.10
2019-04-11T18:54:27.280Z,12.10
2019-04-11T18:56:55.942Z,11.90
2019-04-11T18:59:22.703Z,11.90
2019-04-11T19:01:49.865Z,11.90
2019-04-11T19:04:17.016Z,11.70
2019-04-11T19:06:43.859Z,11.70
2019-04-11T19:09:14.145Z,11.70
2019-04-11T19:11:43.887Z,11.80
2019-04-11T19:14:10.351Z,11.70
2019-04-11T19:16:37.597Z,11.70
2019-04-11T19:19:04.743Z,11.50
2019-04-11T19:21:31.745Z,11.30
2019-04-11T19:23:58.471Z,11.30
2019-04-11T19:26:25.183Z,11.30
2019-04-11T19:28:54.912Z,11.30
2019-04-11T19:31:20.299Z,11.10
2019-04-11T19:33:47.333Z,11.00
2019-04-11T19:36:14.123Z,10.90
2019-04-11T19:38:43.080Z,10.90
2019-04-11T19:41:09.218Z,11.00
2019-04-11T19:43:36.516Z,10.90
2019-04-11T19:46:03.378Z,10.80
2019-04-11T19:48:30.012Z,10.70
2019-04-11T19:50:58.988Z,10.50
2019-04-11T19:53:28.202Z,10.50
2019-04-11T19:56:00.415Z,10.70
2019-04-11T19:58:28.672Z,10.70
2019-04-11T20:00:55.310Z,10.50
2019-04-11T20:03:24.193Z,10.50
2019-04-11T20:05:50.639Z,10.50
2019-04-11T20:08:17.478Z,10.50
2019-04-11T20:10:44.278Z,10.40
2019-04-11T20:13:13.153Z,10.40
2019-04-11T20:15:42.109Z,10.40
2019-04-11T20:18:08.531Z,10.40
2019-04-11T20:20:37.025Z,10.40
2019-04-11T20:23:04.244Z,10.40
2019-04-11T20:25:31.285Z,10.30
2019-04-11T20:27:59.460Z,10.20
2019-04-11T20:30:26.544Z,9.90
2019-04-11T20:32:54.607Z,9.90
2019-04-11T20:35:28.696Z,9.80
2019-04-11T20:37:50.462Z,9.80
2019-04-11T20:40:20.441Z,9.80
2019-04-11T20:42:46.361Z,9.90
2019-04-11T20:45:16.214Z,9.80
2019-04-11T20:47:43.164Z,9.70
2019-04-11T20:50:11.899Z,9.80
2019-04-11T20:52:38.803Z,9.80
2019-04-11T20:55:09.200Z,9.70
2019-04-11T20:57:36.137Z,9.80
2019-04-11T21:00:05.173Z,9.90
2019-04-11T21:02:33.325Z,9.80
2019-04-11T21:05:01.222Z,9.90
2019-04-11T21:07:34.899Z,9.90
2019-04-11T21:10:04.174Z,9.80
2019-04-11T21:12:31.944Z,9.70
2019-04-11T21:14:59.393Z,9.80
2019-04-11T21:17:26.769Z,9.60
2019-04-11T21:19:56.729Z,9.60
2019-04-11T21:22:24.790Z,9.70
2019-04-11T21:24:51.644Z,9.70
2019-04-11T21:27:18.745Z,9.70
2019-04-11T21:29:45.586Z,9.80
2019-04-11T21:32:14.011Z,9.80
2019-04-11T21:34:41.132Z,9.70
2019-04-11T21:37:08.274Z,9.70
2019-04-11T21:39:35.191Z,9.70
2019-04-11T21:42:05.822Z,9.70
2019-04-11T21:44:35.967Z,9.70
2019-04-11T21:47:01.383Z,9.70
2019-04-11T21:49:28.279Z,9.80
2019-04-11T21:51:55.242Z,9.90
2019-04-11T21:54:22.100Z,10.00
2019-04-11T21:56:49.576Z,9.90
2019-04-11T21:59:20.372Z,9.90
2019-04-11T22:01:48.756Z,10.00
2019-04-11T22:04:16.201Z,10.10
2019-04-11T22:06:43.999Z,10.10
2019-04-11T22:09:10.802Z,10.00
2019-04-11T22:11:38.967Z,9.90
2019-04-11T22:14:06.039Z,10.00
2019-04-11T22:16:32.883Z,10.00
2019-04-11T22:19:00.457Z,9.90
2019-04-11T22:21:28.312Z,10.00
2019-04-11T22:23:54.991Z,10.00
2019-04-11T22:26:21.715Z,9.90
2019-04-11T22:28:49.613Z,9.80
2019-04-11T22:31:17.579Z,9.70
2019-04-11T22:33:57.463Z,9.80
2019-04-11T22:36:23.951Z,9.60
2019-04-11T22:39:09.345Z,9.70
2019-04-11T22:41:36.310Z,9.50
2019-04-11T22:44:03.177Z,9.60
2019-04-11T22:46:31.354Z,9.50
2019-04-11T22:48:58.091Z,9.60
2019-04-11T22:51:28.425Z,9.60
2019-04-11T22:54:00.548Z,9.50
2019-04-11T22:56:25.333Z,9.50
2019-04-11T22:58:52.235Z,9.70
2019-04-11T23:01:18.896Z,9.60
2019-04-11T23:03:47.737Z,9.60
2019-04-11T23:06:14.931Z,9.70
2019-04-11T23:08:42.965Z,9.80
2019-04-11T23:11:09.655Z,9.60
2019-04-11T23:13:36.310Z,9.50
2019-04-11T23:16:02.974Z,9.50
2019-04-11T23:18:29.779Z,9.50
2019-04-11T23:20:56.626Z,9.50
2019-04-11T23:23:23.860Z,9.60
2019-04-11T23:25:50.702Z,9.70
2019-04-11T23:28:17.785Z,9.60
2019-04-11T23:30:44.434Z,9.50
2019-04-11T23:33:11.051Z,9.40
2019-04-11T23:35:37.959Z,9.40
2019-04-11T23:38:05.701Z,9.40
2019-04-11T23:40:32.424Z,9.30
2019-04-11T23:42:59.156Z,9.30
2019-04-11T23:45:27.761Z,9.10
2019-04-11T23:47:55.555Z,9.10
2019-04-11T23:50:24.911Z,9.20
2019-04-11T23:52:50.875Z,9.20
2019-04-11T23:55:17.651Z,9.10
2019-04-11T23:57:44.348Z,9.20
